Main page
METAR-TAF:

METAR-TAF

Airports :

Mo i Rana Airport. Røssvoll

Mo I Rana, Norway

latitude: 66-22N, longitude: 014-18E, elevation: 7 m

Current weather observation

The report was made 30 minutes ago, at 12:50 UTC
Wind 2 kt from the North
Temperature 1°C
Humidity 51%
Pressure 1014 hPa
Visibility 10 km or more
no clouds below 1500 m and no cumulonimbus

METAR: ENRA 261250Z 36002KT CAVOK 01/M08 Q1014

Time: 14:20 (13:20 UTC)

Forecast

The report was made 2 hours and 20 minutes ago, at 11:00 UTC
Forecast valid from 26 at 12 UTC to 26 at 21 UTC
Wind 5 kt from variable directions
Visibility 10 km or more
Few clouds at a height of 2000 ft
Scattered clouds at a height of 4000 ft
Temporary
from 26 at 20 UTC to 26 at 21 UTC
Visibility: 2500 m
at a height of 1200 ft
light snow

TAF: ENRA 261100Z 2612/2621 VRB05KT 9999 FEW020 SCT040 TEMPO 2620/2621 2500 -SN VV012

Weather observations and forecasts of more than 4000 airports (METAR and TAF reports).

The available stations are represented by yellow and red dots on the map.

Hover mouse over dot to see the name of the station.

Then click to see weather observations and forecasts.

To change the map : click on the green buttons with a black cross to zoom in, on the green button with a dash to zoom out, or on the green arrows for adjacent maps.


METAR-TAF: